sensor_id;sensor_type;location;lat;lon;timestamp;temperature;humidity
43987;DHT22;29650;47.378;8.300;2023-04-08T00:00:59;6.70;99.90
43987;DHT22;29650;47.378;8.300;2023-04-08T00:03:26;6.50;99.90
43987;DHT22;29650;47.378;8.300;2023-04-08T00:05:53;6.50;99.90
43987;DHT22;29650;47.378;8.300;2023-04-08T00:08:20;6.40;99.90
43987;DHT22;29650;47.378;8.300;2023-04-08T00:10:47;6.50;99.90
43987;DHT22;29650;47.378;8.300;2023-04-08T00:13:14;6.50;99.90
43987;DHT22;29650;47.378;8.300;2023-04-08T00:15:42;6.50;99.90
43987;DHT22;29650;47.378;8.300;2023-04-08T00:18:09;6.70;99.90
43987;DHT22;29650;47.378;8.300;2023-04-08T00:20:36;6.80;99.90
43987;DHT22;29650;47.378;8.300;2023-04-08T00:23:03;6.70;99.90
43987;DHT22;29650;47.378;8.300;2023-04-08T00:25:30;6.70;99.90
43987;DHT22;29650;47.378;8.300;2023-04-08T00:27:57;6.60;99.90
43987;DHT22;29650;47.378;8.300;2023-04-08T00:30:24;6.40;99.90
43987;DHT22;29650;47.378;8.300;2023-04-08T00:32:53;6.20;99.90
43987;DHT22;29650;47.378;8.300;2023-04-08T00:35:20;6.20;99.90
43987;DHT22;29650;47.378;8.300;2023-04-08T00:37:47;6.40;99.90
43987;DHT22;29650;47.378;8.300;2023-04-08T00:40:14;6.40;99.90
43987;DHT22;29650;47.378;8.300;2023-04-08T00:42:41;6.10;99.90
43987;DHT22;29650;47.378;8.300;2023-04-08T00:45:09;6.10;99.90
43987;DHT22;29650;47.378;8.300;2023-04-08T00:47:36;6.10;99.90
43987;DHT22;29650;47.378;8.300;2023-04-08T00:50:07;6.20;99.90
43987;DHT22;29650;47.378;8.300;2023-04-08T00:52:34;6.10;99.90
43987;DHT22;29650;47.378;8.300;2023-04-08T00:55:01;6.20;99.90
43987;DHT22;29650;47.378;8.300;2023-04-08T00:57:28;6.30;99.90
43987;DHT22;29650;47.378;8.300;2023-04-08T00:59:55;6.40;99.90
43987;DHT22;29650;47.378;8.300;2023-04-08T01:02:28;6.40;99.90
43987;DHT22;29650;47.378;8.300;2023-04-08T01:05:00;6.20;99.90
43987;DHT22;29650;47.378;8.300;2023-04-08T01:07:31;6.30;99.90
43987;DHT22;29650;47.378;8.300;2023-04-08T01:10:02;6.40;99.90
43987;DHT22;29650;47.378;8.300;2023-04-08T01:12:32;6.30;99.90
43987;DHT22;29650;47.378;8.300;2023-04-08T01:15:04;6.20;99.90
43987;DHT22;29650;47.378;8.300;2023-04-08T01:17:33;6.30;99.90
43987;DHT22;29650;47.378;8.300;2023-04-08T01:20:01;6.40;99.90
43987;DHT22;29650;47.378;8.300;2023-04-08T01:22:40;5.70;99.90
43987;DHT22;29650;47.378;8.300;2023-04-08T01:25:14;6.40;99.90
43987;DHT22;29650;47.378;8.300;2023-04-08T01:27:43;6.40;99.90
43987;DHT22;29650;47.378;8.300;2023-04-08T01:30:13;6.40;99.90
43987;DHT22;29650;47.378;8.300;2023-04-08T01:32:42;6.40;99.90
43987;DHT22;29650;47.378;8.300;2023-04-08T01:35:10;6.40;99.90
43987;DHT22;29650;47.378;8.300;2023-04-08T01:37:37;6.50;99.90
43987;DHT22;29650;47.378;8.300;2023-04-08T01:40:07;6.50;99.90
43987;DHT22;29650;47.378;8.300;2023-04-08T01:42:34;6.60;99.90
43987;DHT22;29650;47.378;8.300;2023-04-08T01:45:05;6.60;99.90
43987;DHT22;29650;47.378;8.300;2023-04-08T01:47:33;6.60;99.90
43987;DHT22;29650;47.378;8.300;2023-04-08T01:50:01;6.60;99.90
43987;DHT22;29650;47.378;8.300;2023-04-08T01:52:29;6.50;99.90
43987;DHT22;29650;47.378;8.300;2023-04-08T01:54:56;6.30;99.90
43987;DHT22;29650;47.378;8.300;2023-04-08T01:57:25;6.30;99.90
43987;DHT22;29650;47.378;8.300;2023-04-08T01:59:55;6.30;99.90
43987;DHT22;29650;47.378;8.300;2023-04-08T02:02:27;6.40;99.90
43987;DHT22;29650;47.378;8.300;2023-04-08T02:04:55;6.30;99.90
43987;DHT22;29650;47.378;8.300;2023-04-08T02:07:22;6.20;99.90
43987;DHT22;29650;47.378;8.300;2023-04-08T02:09:49;6.00;99.90
43987;DHT22;29650;47.378;8.300;2023-04-08T02:12:17;6.20;99.90
43987;DHT22;29650;47.378;8.300;2023-04-08T02:14:44;6.20;99.90
43987;DHT22;29650;47.378;8.300;2023-04-08T02:17:15;6.20;99.90
43987;DHT22;29650;47.378;8.300;2023-04-08T02:19:51;6.20;99.90
43987;DHT22;29650;47.378;8.300;2023-04-08T02:22:24;6.10;99.90
43987;DHT22;29650;47.378;8.300;2023-04-08T02:24:54;6.10;99.90
43987;DHT22;29650;47.378;8.300;2023-04-08T02:27:22;6.20;99.90
43987;DHT22;29650;47.378;8.300;2023-04-08T02:29:52;6.30;99.90
43987;DHT22;29650;47.378;8.300;2023-04-08T02:32:22;6.30;99.90
43987;DHT22;29650;47.378;8.300;2023-04-08T02:34:53;6.40;99.90
43987;DHT22;29650;47.378;8.300;2023-04-08T02:37:20;6.40;99.90
43987;DHT22;29650;47.378;8.300;2023-04-08T02:39:47;6.20;99.90
43987;DHT22;29650;47.378;8.300;2023-04-08T02:42:14;6.30;99.90
43987;DHT22;29650;47.378;8.300;2023-04-08T02:44:41;6.40;99.90
43987;DHT22;29650;47.378;8.300;2023-04-08T02:47:08;6.40;99.90
43987;DHT22;29650;47.378;8.300;2023-04-08T02:49:35;6.30;99.90
43987;DHT22;29650;47.378;8.300;2023-04-08T02:52:03;6.40;99.90
43987;DHT22;29650;47.378;8.300;2023-04-08T02:54:30;6.30;99.90
43987;DHT22;29650;47.378;8.300;2023-04-08T02:56:57;6.30;99.90
43987;DHT22;29650;47.378;8.300;2023-04-08T02:59:24;6.20;99.90
43987;DHT22;29650;47.378;8.300;2023-04-08T03:01:51;6.30;99.90
43987;DHT22;29650;47.378;8.300;2023-04-08T03:04:18;6.20;99.90
43987;DHT22;29650;47.378;8.300;2023-04-08T03:06:45;6.20;99.90
43987;DHT22;29650;47.378;8.300;2023-04-08T03:09:13;6.20;99.90
43987;DHT22;29650;47.378;8.300;2023-04-08T03:11:40;6.10;99.90
43987;DHT22;29650;47.378;8.300;2023-04-08T03:14:07;6.00;99.90
43987;DHT22;29650;47.378;8.300;2023-04-08T03:16:34;6.00;99.90
43987;DHT22;29650;47.378;8.300;2023-04-08T03:19:01;6.00;99.90
43987;DHT22;29650;47.378;8.300;2023-04-08T03:21:27;6.00;99.90
43987;DHT22;29650;47.378;8.300;2023-04-08T03:23:57;6.80;99.90
43987;DHT22;29650;47.378;8.300;2023-04-08T03:26:25;6.10;99.90
43987;DHT22;29650;47.378;8.300;2023-04-08T03:28:52;6.20;99.90
43987;DHT22;29650;47.378;8.300;2023-04-08T03:31:19;6.30;99.90
43987;DHT22;29650;47.378;8.300;2023-04-08T03:33:46;6.30;99.90
43987;DHT22;29650;47.378;8.300;2023-04-08T03:36:13;6.20;99.90
43987;DHT22;29650;47.378;8.300;2023-04-08T03:38:40;6.10;99.90
43987;DHT22;29650;47.378;8.300;2023-04-08T03:41:07;6.20;99.90
43987;DHT22;29650;47.378;8.300;2023-04-08T03:43:35;6.10;99.90
43987;DHT22;29650;47.378;8.300;2023-04-08T03:46:02;6.10;99.90
43987;DHT22;29650;47.378;8.300;2023-04-08T03:48:29;6.00;99.90
43987;DHT22;29650;47.378;8.300;2023-04-08T03:50:56;5.90;99.90
43987;DHT22;29650;47.378;8.300;2023-04-08T03:53:23;6.00;99.90
43987;DHT22;29650;47.378;8.300;2023-04-08T03:55:52;6.10;99.90
43987;DHT22;29650;47.378;8.300;2023-04-08T03:58:19;6.10;99.90
43987;DHT22;29650;47.378;8.300;2023-04-08T04:00:47;6.10;99.90
43987;DHT22;29650;47.378;8.300;2023-04-08T04:03:14;6.10;99.90
43987;DHT22;29650;47.378;8.300;2023-04-08T04:05:41;6.10;99.90
43987;DHT22;29650;47.378;8.300;2023-04-08T04:08:08;6.00;99.90
43987;DHT22;29650;47.378;8.300;2023-04-08T04:10:35;6.00;99.90
43987;DHT22;29650;47.378;8.300;2023-04-08T04:13:02;6.00;99.90
43987;DHT22;29650;47.378;8.300;2023-04-08T04:15:29;6.00;99.90
43987;DHT22;29650;47.378;8.300;2023-04-08T04:17:57;5.90;99.90
43987;DHT22;29650;47.378;8.300;2023-04-08T04:20:24;6.00;99.90
43987;DHT22;29650;47.378;8.300;2023-04-08T04:22:53;5.90;99.90
43987;DHT22;29650;47.378;8.300;2023-04-08T04:25:20;5.90;99.90
43987;DHT22;29650;47.378;8.300;2023-04-08T04:27:47;5.80;99.90
43987;DHT22;29650;47.378;8.300;2023-04-08T04:30:14;5.80;99.90
43987;DHT22;29650;47.378;8.300;2023-04-08T04:32:41;5.60;99.90
43987;DHT22;29650;47.378;8.300;2023-04-08T04:35:09;5.50;99.90
43987;DHT22;29650;47.378;8.300;2023-04-08T04:37:37;5.70;99.90
43987;DHT22;29650;47.378;8.300;2023-04-08T04:40:04;5.80;99.90
43987;DHT22;29650;47.378;8.300;2023-04-08T04:42:32;5.80;99.90
43987;DHT22;29650;47.378;8.300;2023-04-08T04:44:59;5.80;99.90
43987;DHT22;29650;47.378;8.300;2023-04-08T04:47:26;5.80;99.90
43987;DHT22;29650;47.378;8.300;2023-04-08T04:49:52;5.70;99.90
43987;DHT22;29650;47.378;8.300;2023-04-08T04:52:21;5.70;99.90
43987;DHT22;29650;47.378;8.300;2023-04-08T04:54:48;5.60;99.90
43987;DHT22;29650;47.378;8.300;2023-04-08T04:57:15;5.70;99.90
43987;DHT22;29650;47.378;8.300;2023-04-08T04:59:42;5.60;99.90
43987;DHT22;29650;47.378;8.300;2023-04-08T05:02:08;5.40;99.90
43987;DHT22;29650;47.378;8.300;2023-04-08T05:04:35;5.50;99.90
43987;DHT22;29650;47.378;8.300;2023-04-08T05:07:02;5.60;99.90
43987;DHT22;29650;47.378;8.300;2023-04-08T05:09:31;5.70;99.90
43987;DHT22;29650;47.378;8.300;2023-04-08T05:11:57;5.70;99.90
43987;DHT22;29650;47.378;8.300;2023-04-08T05:14:24;5.80;99.90
43987;DHT22;29650;47.378;8.300;2023-04-08T05:16:54;5.90;99.90
43987;DHT22;29650;47.378;8.300;2023-04-08T05:19:21;5.90;99.90
43987;DHT22;29650;47.378;8.300;2023-04-08T05:21:48;5.90;99.90
43987;DHT22;29650;47.378;8.300;2023-04-08T05:24:16;5.80;99.90
43987;DHT22;29650;47.378;8.300;2023-04-08T05:26:44;5.80;99.90
43987;DHT22;29650;47.378;8.300;2023-04-08T05:29:12;5.80;99.90
43987;DHT22;29650;47.378;8.300;2023-04-08T05:31:39;5.70;99.90
43987;DHT22;29650;47.378;8.300;2023-04-08T05:34:06;5.60;99.90
43987;DHT22;29650;47.378;8.300;2023-04-08T05:36:32;5.50;99.90
43987;DHT22;29650;47.378;8.300;2023-04-08T05:38:59;5.50;99.90
43987;DHT22;29650;47.378;8.300;2023-04-08T05:41:26;5.50;99.90
43987;DHT22;29650;47.378;8.300;2023-04-08T05:43:55;5.60;99.90
43987;DHT22;29650;47.378;8.300;2023-04-08T05:46:21;5.50;99.90
43987;DHT22;29650;47.378;8.300;2023-04-08T05:48:48;5.50;99.90
43987;DHT22;29650;47.378;8.300;2023-04-08T05:51:16;5.50;99.90
43987;DHT22;29650;47.378;8.300;2023-04-08T05:53:44;5.50;99.90
43987;DHT22;29650;47.378;8.300;2023-04-08T05:56:11;5.50;99.90
43987;DHT22;29650;47.378;8.300;2023-04-08T05:58:38;5.60;99.90
43987;DHT22;29650;47.378;8.300;2023-04-08T06:01:06;5.70;99.90
43987;DHT22;29650;47.378;8.300;2023-04-08T06:03:33;5.90;99.90
43987;DHT22;29650;47.378;8.300;2023-04-08T06:06:00;5.90;99.90
43987;DHT22;29650;47.378;8.300;2023-04-08T06:08:27;5.70;99.90
43987;DHT22;29650;47.378;8.300;2023-04-08T06:10:54;5.80;99.90
43987;DHT22;29650;47.378;8.300;2023-04-08T06:13:21;5.90;99.90
43987;DHT22;29650;47.378;8.300;2023-04-08T06:15:50;6.00;99.90
43987;DHT22;29650;47.378;8.300;2023-04-08T06:18:18;6.10;99.90
43987;DHT22;29650;47.378;8.300;2023-04-08T06:20:45;6.20;99.90
43987;DHT22;29650;47.378;8.300;2023-04-08T06:23:12;6.30;99.90
43987;DHT22;29650;47.378;8.300;2023-04-08T06:25:39;6.40;99.90
43987;DHT22;29650;47.378;8.300;2023-04-08T06:28:06;6.30;99.90
43987;DHT22;29650;47.378;8.300;2023-04-08T06:30:33;6.30;99.90
43987;DHT22;29650;47.378;8.300;2023-04-08T06:33:00;6.30;99.90
43987;DHT22;29650;47.378;8.300;2023-04-08T06:35:29;6.30;99.90
43987;DHT22;29650;47.378;8.300;2023-04-08T06:37:56;6.40;99.90
43987;DHT22;29650;47.378;8.300;2023-04-08T06:40:23;6.50;99.90
43987;DHT22;29650;47.378;8.300;2023-04-08T06:42:49;6.50;99.90
43987;DHT22;29650;47.378;8.300;2023-04-08T06:45:16;6.60;99.90
43987;DHT22;29650;47.378;8.300;2023-04-08T06:47:43;6.60;99.90
43987;DHT22;29650;47.378;8.300;2023-04-08T06:50:10;6.70;99.90
43987;DHT22;29650;47.378;8.300;2023-04-08T06:52:38;6.80;99.90
43987;DHT22;29650;47.378;8.300;2023-04-08T06:55:06;6.90;99.90
43987;DHT22;29650;47.378;8.300;2023-04-08T06:57:33;7.00;99.90
43987;DHT22;29650;47.378;8.300;2023-04-08T06:59:59;7.00;99.90
43987;DHT22;29650;47.378;8.300;2023-04-08T07:02:27;7.10;99.90
43987;DHT22;29650;47.378;8.300;2023-04-08T07:04:53;7.20;99.90
43987;DHT22;29650;47.378;8.300;2023-04-08T07:07:20;7.20;99.90
43987;DHT22;29650;47.378;8.300;2023-04-08T07:09:50;7.30;99.90
43987;DHT22;29650;47.378;8.300;2023-04-08T07:12:17;7.40;99.90
43987;DHT22;29650;47.378;8.300;2023-04-08T07:14:44;7.50;99.90
43987;DHT22;29650;47.378;8.300;2023-04-08T07:17:11;7.50;99.90
43987;DHT22;29650;47.378;8.300;2023-04-08T07:19:37;7.70;99.90
43987;DHT22;29650;47.378;8.300;2023-04-08T07:22:05;7.70;99.90
43987;DHT22;29650;47.378;8.300;2023-04-08T07:24:32;7.70;99.90
43987;DHT22;29650;47.378;8.300;2023-04-08T07:27:00;7.70;99.90
43987;DHT22;29650;47.378;8.300;2023-04-08T07:29:27;7.60;99.90
43987;DHT22;29650;47.378;8.300;2023-04-08T07:31:54;7.60;99.90
43987;DHT22;29650;47.378;8.300;2023-04-08T07:34:21;7.60;99.90
43987;DHT22;29650;47.378;8.300;2023-04-08T07:36:48;7.50;99.90
43987;DHT22;29650;47.378;8.300;2023-04-08T07:39:15;7.60;99.90
43987;DHT22;29650;47.378;8.300;2023-04-08T07:41:42;7.60;99.90
43987;DHT22;29650;47.378;8.300;2023-04-08T07:44:10;7.70;99.90
43987;DHT22;29650;47.378;8.300;2023-04-08T07:46:39;7.80;99.90
43987;DHT22;29650;47.378;8.300;2023-04-08T07:49:05;7.80;99.90
43987;DHT22;29650;47.378;8.300;2023-04-08T07:51:32;8.00;99.90
43987;DHT22;29650;47.378;8.300;2023-04-08T07:53:59;8.00;99.90
43987;DHT22;29650;47.378;8.300;2023-04-08T07:56:26;8.30;99.90
43987;DHT22;29650;47.378;8.300;2023-04-08T07:58:53;8.20;99.90
43987;DHT22;29650;47.378;8.300;2023-04-08T08:01:22;8.50;99.90
43987;DHT22;29650;47.378;8.300;2023-04-08T08:03:50;8.40;99.90
43987;DHT22;29650;47.378;8.300;2023-04-08T08:06:17;8.70;99.90
43987;DHT22;29650;47.378;8.300;2023-04-08T08:08:44;8.70;99.90
43987;DHT22;29650;47.378;8.300;2023-04-08T08:11:11;8.80;99.90
43987;DHT22;29650;47.378;8.300;2023-04-08T08:13:38;8.80;99.90
43987;DHT22;29650;47.378;8.300;2023-04-08T08:16:05;8.80;99.90
43987;DHT22;29650;47.378;8.300;2023-04-08T08:18:37;8.80;99.90
43987;DHT22;29650;47.378;8.300;2023-04-08T08:21:04;8.70;99.90
43987;DHT22;29650;47.378;8.300;2023-04-08T08:23:31;8.80;99.90
43987;DHT22;29650;47.378;8.300;2023-04-08T08:25:59;8.90;99.90
43987;DHT22;29650;47.378;8.300;2023-04-08T08:28:26;8.80;99.90
43987;DHT22;29650;47.378;8.300;2023-04-08T08:30:53;8.80;99.90
43987;DHT22;29650;47.378;8.300;2023-04-08T08:33:21;8.80;99.90
43987;DHT22;29650;47.378;8.300;2023-04-08T08:35:50;8.90;99.90
43987;DHT22;29650;47.378;8.300;2023-04-08T08:38:17;8.80;99.90
43987;DHT22;29650;47.378;8.300;2023-04-08T08:40:44;8.80;99.90
43987;DHT22;29650;47.378;8.300;2023-04-08T08:43:11;8.70;99.90
43987;DHT22;29650;47.378;8.300;2023-04-08T08:45:38;8.90;99.90
43987;DHT22;29650;47.378;8.300;2023-04-08T08:48:06;9.00;99.90
43987;DHT22;29650;47.378;8.300;2023-04-08T08:50:34;9.00;99.90
43987;DHT22;29650;47.378;8.300;2023-04-08T08:53:02;9.00;99.90
43987;DHT22;29650;47.378;8.300;2023-04-08T08:55:30;9.10;99.90
43987;DHT22;29650;47.378;8.300;2023-04-08T08:57:58;9.10;99.90
43987;DHT22;29650;47.378;8.300;2023-04-08T09:00:32;9.20;99.90
43987;DHT22;29650;47.378;8.300;2023-04-08T09:03:16;9.20;99.90
43987;DHT22;29650;47.378;8.300;2023-04-08T09:05:47;9.10;99.90
43987;DHT22;29650;47.378;8.300;2023-04-08T09:08:28;9.20;99.90
43987;DHT22;29650;47.378;8.300;2023-04-08T09:11:09;9.40;99.90
43987;DHT22;29650;47.378;8.300;2023-04-08T09:13:37;9.50;99.90
43987;DHT22;29650;47.378;8.300;2023-04-08T09:16:05;9.60;99.90
43987;DHT22;29650;47.378;8.300;2023-04-08T09:18:33;9.70;99.90
43987;DHT22;29650;47.378;8.300;2023-04-08T09:21:01;9.70;99.90
43987;DHT22;29650;47.378;8.300;2023-04-08T09:23:43;9.70;99.90
43987;DHT22;29650;47.378;8.300;2023-04-08T09:26:11;9.80;99.90
43987;DHT22;29650;47.378;8.300;2023-04-08T09:28:39;10.10;99.90
43987;DHT22;29650;47.378;8.300;2023-04-08T09:31:20;10.30;99.90
43987;DHT22;29650;47.378;8.300;2023-04-08T09:33:47;10.50;99.10
43987;DHT22;29650;47.378;8.300;2023-04-08T09:36:14;10.50;99.90
43987;DHT22;29650;47.378;8.300;2023-04-08T09:38:43;10.60;99.90
43987;DHT22;29650;47.378;8.300;2023-04-08T09:41:13;10.60;97.50
43987;DHT22;29650;47.378;8.300;2023-04-08T09:43:41;10.70;98.00
43987;DHT22;29650;47.378;8.300;2023-04-08T09:46:10;11.00;98.60
43987;DHT22;29650;47.378;8.300;2023-04-08T09:48:40;11.00;96.40
43987;DHT22;29650;47.378;8.300;2023-04-08T09:51:12;11.00;95.30
43987;DHT22;29650;47.378;8.300;2023-04-08T09:53:46;11.10;94.60
43987;DHT22;29650;47.378;8.300;2023-04-08T09:56:13;11.00;93.10
43987;DHT22;29650;47.378;8.300;2023-04-08T09:58:51;11.00;93.60
43987;DHT22;29650;47.378;8.300;2023-04-08T10:01:25;11.40;91.30
43987;DHT22;29650;47.378;8.300;2023-04-08T10:03:54;11.10;90.10
43987;DHT22;29650;47.378;8.300;2023-04-08T10:06:27;11.20;89.80
43987;DHT22;29650;47.378;8.300;2023-04-08T10:08:57;11.00;89.90
43987;DHT22;29650;47.378;8.300;2023-04-08T10:11:24;11.40;90.40
43987;DHT22;29650;47.378;8.300;2023-04-08T10:13:51;11.90;91.50
43987;DHT22;29650;47.378;8.300;2023-04-08T10:16:22;12.00;86.90
43987;DHT22;29650;47.378;8.300;2023-04-08T10:18:51;12.10;90.30
43987;DHT22;29650;47.378;8.300;2023-04-08T10:21:34;12.00;83.60
43987;DHT22;29650;47.378;8.300;2023-04-08T10:24:06;11.90;80.00
43987;DHT22;29650;47.378;8.300;2023-04-08T10:26:35;12.40;84.60
43987;DHT22;29650;47.378;8.300;2023-04-08T10:29:30;12.30;81.30
43987;DHT22;29650;47.378;8.300;2023-04-08T10:31:57;12.10;77.10
43987;DHT22;29650;47.378;8.300;2023-04-08T10:34:25;11.50;79.40
43987;DHT22;29650;47.378;8.300;2023-04-08T10:36:54;11.20;79.70
43987;DHT22;29650;47.378;8.300;2023-04-08T10:39:24;11.80;79.80
43987;DHT22;29650;47.378;8.300;2023-04-08T10:41:51;11.60;79.20
43987;DHT22;29650;47.378;8.300;2023-04-08T10:44:19;11.80;76.70
43987;DHT22;29650;47.378;8.300;2023-04-08T10:46:47;12.20;76.70
43987;DHT22;29650;47.378;8.300;2023-04-08T10:49:15;12.30;83.90
43987;DHT22;29650;47.378;8.300;2023-04-08T10:51:43;12.20;75.40
43987;DHT22;29650;47.378;8.300;2023-04-08T10:54:12;12.00;73.20
43987;DHT22;29650;47.378;8.300;2023-04-08T10:56:46;11.10;70.90
43987;DHT22;29650;47.378;8.300;2023-04-08T10:59:14;12.10;72.20
43987;DHT22;29650;47.378;8.300;2023-04-08T11:01:43;12.70;72.20
43987;DHT22;29650;47.378;8.300;2023-04-08T11:04:12;12.80;72.00
43987;DHT22;29650;47.378;8.300;2023-04-08T11:06:41;12.20;72.90
43987;DHT22;29650;47.378;8.300;2023-04-08T11:09:08;12.10;74.40
43987;DHT22;29650;47.378;8.300;2023-04-08T11:11:35;11.70;75.10
43987;DHT22;29650;47.378;8.300;2023-04-08T11:14:05;11.90;76.00
43987;DHT22;29650;47.378;8.300;2023-04-08T11:16:32;12.10;74.20
43987;DHT22;29650;47.378;8.300;2023-04-08T11:19:02;12.10;71.30
43987;DHT22;29650;47.378;8.300;2023-04-08T11:21:29;12.10;70.40
43987;DHT22;29650;47.378;8.300;2023-04-08T11:23:56;12.30;72.70
43987;DHT22;29650;47.378;8.300;2023-04-08T11:26:24;12.10;71.90
43987;DHT22;29650;47.378;8.300;2023-04-08T11:28:53;12.10;71.30
43987;DHT22;29650;47.378;8.300;2023-04-08T11:31:23;12.20;69.70
43987;DHT22;29650;47.378;8.300;2023-04-08T11:33:53;12.40;69.40
43987;DHT22;29650;47.378;8.300;2023-04-08T11:36:20;12.40;72.30
43987;DHT22;29650;47.378;8.300;2023-04-08T11:38:47;12.30;70.50
43987;DHT22;29650;47.378;8.300;2023-04-08T11:41:14;12.10;69.50
43987;DHT22;29650;47.378;8.300;2023-04-08T11:43:52;11.80;71.20
43987;DHT22;29650;47.378;8.300;2023-04-08T11:46:19;11.90;70.80
43987;DHT22;29650;47.378;8.300;2023-04-08T11:49:02;11.80;74.00
43987;DHT22;29650;47.378;8.300;2023-04-08T11:51:29;11.50;75.90
43987;DHT22;29650;47.378;8.300;2023-04-08T11:53:56;11.50;77.10
43987;DHT22;29650;47.378;8.300;2023-04-08T11:56:23;11.30;79.10
43987;DHT22;29650;47.378;8.300;2023-04-08T11:58:51;11.40;76.90
43987;DHT22;29650;47.378;8.300;2023-04-08T12:01:18;11.40;76.20
43987;DHT22;29650;47.378;8.300;2023-04-08T12:03:57;11.50;77.50
43987;DHT22;29650;47.378;8.300;2023-04-08T12:06:25;11.50;73.20
43987;DHT22;29650;47.378;8.300;2023-04-08T12:08:53;11.50;72.00
43987;DHT22;29650;47.378;8.300;2023-04-08T12:11:21;11.50;71.00
43987;DHT22;29650;47.378;8.300;2023-04-08T12:13:48;11.80;69.50
43987;DHT22;29650;47.378;8.300;2023-04-08T12:16:17;11.80;71.70
43987;DHT22;29650;47.378;8.300;2023-04-08T12:18:45;12.10;68.20
43987;DHT22;29650;47.378;8.300;2023-04-08T12:21:12;12.30;67.90
43987;DHT22;29650;47.378;8.300;2023-04-08T12:23:40;12.20;65.80
43987;DHT22;29650;47.378;8.300;2023-04-08T12:26:07;11.90;71.10
43987;DHT22;29650;47.378;8.300;2023-04-08T12:28:34;11.20;81.50
43987;DHT22;29650;47.378;8.300;2023-04-08T12:31:01;11.10;87.90
43987;DHT22;29650;47.378;8.300;2023-04-08T12:33:28;11.10;89.60
43987;DHT22;29650;47.378;8.300;2023-04-08T12:35:55;10.90;90.50
43987;DHT22;29650;47.378;8.300;2023-04-08T12:38:23;10.80;91.10
43987;DHT22;29650;47.378;8.300;2023-04-08T12:40:52;10.70;92.00
43987;DHT22;29650;47.378;8.300;2023-04-08T12:43:19;10.50;90.80
43987;DHT22;29650;47.378;8.300;2023-04-08T12:45:46;10.50;91.10
43987;DHT22;29650;47.378;8.300;2023-04-08T12:48:14;10.50;91.20
43987;DHT22;29650;47.378;8.300;2023-04-08T12:50:41;10.50;91.40
43987;DHT22;29650;47.378;8.300;2023-04-08T12:53:08;10.60;91.30
43987;DHT22;29650;47.378;8.300;2023-04-08T12:55:35;10.40;90.20
43987;DHT22;29650;47.378;8.300;2023-04-08T12:58:03;10.60;90.40
43987;DHT22;29650;47.378;8.300;2023-04-08T13:00:31;10.40;87.70
43987;DHT22;29650;47.378;8.300;2023-04-08T13:02:58;10.50;88.50
43987;DHT22;29650;47.378;8.300;2023-04-08T13:05:24;10.60;88.30
43987;DHT22;29650;47.378;8.300;2023-04-08T13:07:51;10.50;90.90
43987;DHT22;29650;47.378;8.300;2023-04-08T13:10:18;10.60;90.70
43987;DHT22;29650;47.378;8.300;2023-04-08T13:12:45;10.60;90.10
43987;DHT22;29650;47.378;8.300;2023-04-08T13:15:14;10.60;88.80
43987;DHT22;29650;47.378;8.300;2023-04-08T13:17:41;10.60;88.70
43987;DHT22;29650;47.378;8.300;2023-04-08T13:20:09;10.60;90.30
43987;DHT22;29650;47.378;8.300;2023-04-08T13:22:36;10.70;90.60
43987;DHT22;29650;47.378;8.300;2023-04-08T13:25:04;10.70;89.60
43987;DHT22;29650;47.378;8.300;2023-04-08T13:27:32;10.90;90.00
43987;DHT22;29650;47.378;8.300;2023-04-08T13:29:59;10.90;87.40
43987;DHT22;29650;47.378;8.300;2023-04-08T13:32:27;11.00;89.60
43987;DHT22;29650;47.378;8.300;2023-04-08T13:34:54;10.90;84.90
43987;DHT22;29650;47.378;8.300;2023-04-08T13:37:21;11.00;86.70
43987;DHT22;29650;47.378;8.300;2023-04-08T13:39:48;10.90;85.10
43987;DHT22;29650;47.378;8.300;2023-04-08T13:42:15;11.00;84.80
43987;DHT22;29650;47.378;8.300;2023-04-08T13:44:42;10.90;85.20
43987;DHT22;29650;47.378;8.300;2023-04-08T13:47:09;10.90;84.30
43987;DHT22;29650;47.378;8.300;2023-04-08T13:49:38;10.90;83.50
43987;DHT22;29650;47.378;8.300;2023-04-08T13:52:05;11.00;83.70
43987;DHT22;29650;47.378;8.300;2023-04-08T13:54:33;10.90;84.30
43987;DHT22;29650;47.378;8.300;2023-04-08T13:57:00;11.10;84.90
43987;DHT22;29650;47.378;8.300;2023-04-08T13:59:27;11.10;86.30
43987;DHT22;29650;47.378;8.300;2023-04-08T14:01:54;11.20;87.20
43987;DHT22;29650;47.378;8.300;2023-04-08T14:04:21;10.90;85.00
43987;DHT22;29650;47.378;8.300;2023-04-08T14:06:50;11.20;86.40
43987;DHT22;29650;47.378;8.300;2023-04-08T14:09:17;11.20;84.80
43987;DHT22;29650;47.378;8.300;2023-04-08T14:11:44;11.30;85.50
43987;DHT22;29650;47.378;8.300;2023-04-08T14:14:11;11.30;86.40
43987;DHT22;29650;47.378;8.300;2023-04-08T14:16:38;11.20;85.00
43987;DHT22;29650;47.378;8.300;2023-04-08T14:19:06;11.30;84.30
43987;DHT22;29650;47.378;8.300;2023-04-08T14:21:33;11.30;81.80
43987;DHT22;29650;47.378;8.300;2023-04-08T14:24:04;11.30;82.60
43987;DHT22;29650;47.378;8.300;2023-04-08T14:26:34;11.30;82.10
43987;DHT22;29650;47.378;8.300;2023-04-08T14:29:02;11.40;83.80
43987;DHT22;29650;47.378;8.300;2023-04-08T14:31:30;11.40;80.60
43987;DHT22;29650;47.378;8.300;2023-04-08T14:33:57;11.40;81.40
43987;DHT22;29650;47.378;8.300;2023-04-08T14:36:24;11.50;80.30
43987;DHT22;29650;47.378;8.300;2023-04-08T14:38:52;11.40;79.80
43987;DHT22;29650;47.378;8.300;2023-04-08T14:41:21;11.50;78.50
43987;DHT22;29650;47.378;8.300;2023-04-08T14:43:50;11.50;78.50
43987;DHT22;29650;47.378;8.300;2023-04-08T14:46:17;11.50;79.30
43987;DHT22;29650;47.378;8.300;2023-04-08T14:48:44;11.60;76.80
43987;DHT22;29650;47.378;8.300;2023-04-08T14:51:11;11.60;77.30
43987;DHT22;29650;47.378;8.300;2023-04-08T14:53:38;11.60;79.10
43987;DHT22;29650;47.378;8.300;2023-04-08T14:56:07;11.50;79.40
43987;DHT22;29650;47.378;8.300;2023-04-08T14:58:35;11.40;78.80
43987;DHT22;29650;47.378;8.300;2023-04-08T15:01:03;11.40;80.10
43987;DHT22;29650;47.378;8.300;2023-04-08T15:03:30;11.60;82.20
43987;DHT22;29650;47.378;8.300;2023-04-08T15:05:57;11.60;79.40
43987;DHT22;29650;47.378;8.300;2023-04-08T15:08:24;11.50;79.60
43987;DHT22;29650;47.378;8.300;2023-04-08T15:10:51;11.70;83.80
43987;DHT22;29650;47.378;8.300;2023-04-08T15:13:18;11.60;80.10
43987;DHT22;29650;47.378;8.300;2023-04-08T15:15:46;11.60;81.00
43987;DHT22;29650;47.378;8.300;2023-04-08T15:18:13;11.50;79.00
43987;DHT22;29650;47.378;8.300;2023-04-08T15:20:40;11.50;79.00
43987;DHT22;29650;47.378;8.300;2023-04-08T15:23:07;11.30;79.60
43987;DHT22;29650;47.378;8.300;2023-04-08T15:25:34;11.10;81.10
43987;DHT22;29650;47.378;8.300;2023-04-08T15:28:01;11.20;84.30
43987;DHT22;29650;47.378;8.300;2023-04-08T15:30:29;11.30;83.20
43987;DHT22;29650;47.378;8.300;2023-04-08T15:33:01;11.30;83.60
43987;DHT22;29650;47.378;8.300;2023-04-08T15:35:28;11.20;83.10
43987;DHT22;29650;47.378;8.300;2023-04-08T15:37:56;11.20;85.70
43987;DHT22;29650;47.378;8.300;2023-04-08T15:40:23;11.20;83.10
43987;DHT22;29650;47.378;8.300;2023-04-08T15:42:50;11.10;82.80
43987;DHT22;29650;47.378;8.300;2023-04-08T15:45:17;11.00;84.30